sensor_id;sensor_type;location;lat;lon;timestamp;temperature;humidity
14409;DHT22;7289;50.706;4.992;2023-04-24T00:00:18;9.90;99.90
14409;DHT22;7289;50.706;4.992;2023-04-24T00:02:47;9.90;99.90
14409;DHT22;7289;50.706;4.992;2023-04-24T00:05:16;9.90;99.90
14409;DHT22;7289;50.706;4.992;2023-04-24T00:07:46;9.80;99.90
14409;DHT22;7289;50.706;4.992;2023-04-24T00:10:15;9.90;99.90
14409;DHT22;7289;50.706;4.992;2023-04-24T00:12:43;9.90;99.90
14409;DHT22;7289;50.706;4.992;2023-04-24T00:15:12;9.90;99.90
14409;DHT22;7289;50.706;4.992;2023-04-24T00:17:40;10.00;99.90
14409;DHT22;7289;50.706;4.992;2023-04-24T00:20:09;9.90;99.90
14409;DHT22;7289;50.706;4.992;2023-04-24T00:22:38;10.00;99.90
14409;DHT22;7289;50.706;4.992;2023-04-24T00:25:09;9.90;99.90
14409;DHT22;7289;50.706;4.992;2023-04-24T00:27:37;9.90;99.90
14409;DHT22;7289;50.706;4.992;2023-04-24T00:30:07;9.90;99.90
14409;DHT22;7289;50.706;4.992;2023-04-24T00:32:35;9.90;99.90
14409;DHT22;7289;50.706;4.992;2023-04-24T00:35:05;9.90;99.90
14409;DHT22;7289;50.706;4.992;2023-04-24T00:37:33;10.00;99.90
14409;DHT22;7289;50.706;4.992;2023-04-24T00:40:02;9.90;99.90
14409;DHT22;7289;50.706;4.992;2023-04-24T00:42:32;10.00;99.90
14409;DHT22;7289;50.706;4.992;2023-04-24T00:45:04;10.00;99.90
14409;DHT22;7289;50.706;4.992;2023-04-24T00:47:33;10.00;99.90
14409;DHT22;7289;50.706;4.992;2023-04-24T00:50:02;9.90;99.90
14409;DHT22;7289;50.706;4.992;2023-04-24T00:52:30;9.90;99.90
14409;DHT22;7289;50.706;4.992;2023-04-24T00:54:59;10.00;99.90
14409;DHT22;7289;50.706;4.992;2023-04-24T00:57:28;9.90;99.90
14409;DHT22;7289;50.706;4.992;2023-04-24T00:59:58;9.90;99.90
14409;DHT22;7289;50.706;4.992;2023-04-24T01:02:27;9.90;99.90
14409;DHT22;7289;50.706;4.992;2023-04-24T01:04:56;9.90;99.90
14409;DHT22;7289;50.706;4.992;2023-04-24T01:07:25;9.90;99.90
14409;DHT22;7289;50.706;4.992;2023-04-24T01:09:54;9.90;99.90
14409;DHT22;7289;50.706;4.992;2023-04-24T01:12:24;9.90;99.90
14409;DHT22;7289;50.706;4.992;2023-04-24T01:14:53;9.80;99.90
14409;DHT22;7289;50.706;4.992;2023-04-24T01:17:23;9.70;99.90
14409;DHT22;7289;50.706;4.992;2023-04-24T01:19:51;9.80;99.90
14409;DHT22;7289;50.706;4.992;2023-04-24T01:22:22;9.80;99.90
14409;DHT22;7289;50.706;4.992;2023-04-24T01:24:51;9.80;99.90
14409;DHT22;7289;50.706;4.992;2023-04-24T01:27:20;9.80;99.90
14409;DHT22;7289;50.706;4.992;2023-04-24T01:29:48;9.80;99.90
14409;DHT22;7289;50.706;4.992;2023-04-24T01:32:19;9.80;99.90
14409;DHT22;7289;50.706;4.992;2023-04-24T01:34:48;9.80;99.90
14409;DHT22;7289;50.706;4.992;2023-04-24T01:37:17;9.90;99.90
14409;DHT22;7289;50.706;4.992;2023-04-24T01:39:47;9.80;99.90
14409;DHT22;7289;50.706;4.992;2023-04-24T01:42:16;9.80;99.90
14409;DHT22;7289;50.706;4.992;2023-04-24T01:44:47;9.70;99.90
14409;DHT22;7289;50.706;4.992;2023-04-24T01:47:15;9.70;99.90
14409;DHT22;7289;50.706;4.992;2023-04-24T01:49:45;9.70;99.90
14409;DHT22;7289;50.706;4.992;2023-04-24T01:52:13;9.70;99.90
14409;DHT22;7289;50.706;4.992;2023-04-24T01:54:42;9.70;99.90
14409;DHT22;7289;50.706;4.992;2023-04-24T01:57:11;9.70;99.90
14409;DHT22;7289;50.706;4.992;2023-04-24T01:59:42;9.60;99.90
14409;DHT22;7289;50.706;4.992;2023-04-24T02:02:10;9.50;99.90
14409;DHT22;7289;50.706;4.992;2023-04-24T02:04:39;9.50;99.90
14409;DHT22;7289;50.706;4.992;2023-04-24T02:07:07;9.50;99.90
14409;DHT22;7289;50.706;4.992;2023-04-24T02:09:36;9.50;99.90
14409;DHT22;7289;50.706;4.992;2023-04-24T02:12:05;9.40;99.90
14409;DHT22;7289;50.706;4.992;2023-04-24T02:14:35;9.40;99.90
14409;DHT22;7289;50.706;4.992;2023-04-24T02:17:03;9.30;99.90
14409;DHT22;7289;50.706;4.992;2023-04-24T02:19:32;9.20;99.90
14409;DHT22;7289;50.706;4.992;2023-04-24T02:22:00;9.20;99.90
14409;DHT22;7289;50.706;4.992;2023-04-24T02:24:28;9.10;99.90
14409;DHT22;7289;50.706;4.992;2023-04-24T02:26:57;9.10;99.90
14409;DHT22;7289;50.706;4.992;2023-04-24T02:29:26;9.10;99.90
14409;DHT22;7289;50.706;4.992;2023-04-24T02:31:56;9.10;99.90
14409;DHT22;7289;50.706;4.992;2023-04-24T02:34:24;9.00;99.90
14409;DHT22;7289;50.706;4.992;2023-04-24T02:36:53;9.00;99.90
14409;DHT22;7289;50.706;4.992;2023-04-24T02:39:21;9.00;99.90
14409;DHT22;7289;50.706;4.992;2023-04-24T02:41:52;8.90;99.90
14409;DHT22;7289;50.706;4.992;2023-04-24T02:44:20;8.90;99.90
14409;DHT22;7289;50.706;4.992;2023-04-24T02:46:50;8.80;99.90
14409;DHT22;7289;50.706;4.992;2023-04-24T02:49:19;8.80;99.90
14409;DHT22;7289;50.706;4.992;2023-04-24T02:51:48;8.70;99.90
14409;DHT22;7289;50.706;4.992;2023-04-24T02:54:16;8.70;99.90
14409;DHT22;7289;50.706;4.992;2023-04-24T02:56:46;8.80;99.90
14409;DHT22;7289;50.706;4.992;2023-04-24T02:59:14;8.80;99.90
14409;DHT22;7289;50.706;4.992;2023-04-24T03:01:43;8.70;99.90
14409;DHT22;7289;50.706;4.992;2023-04-24T03:04:11;8.80;99.90
14409;DHT22;7289;50.706;4.992;2023-04-24T03:06:41;8.80;99.90
14409;DHT22;7289;50.706;4.992;2023-04-24T03:09:09;8.80;99.90
14409;DHT22;7289;50.706;4.992;2023-04-24T03:11:38;8.80;99.90
14409;DHT22;7289;50.706;4.992;2023-04-24T03:14:07;8.90;99.90
14409;DHT22;7289;50.706;4.992;2023-04-24T03:16:38;8.90;99.90
14409;DHT22;7289;50.706;4.992;2023-04-24T03:19:07;8.90;99.90
14409;DHT22;7289;50.706;4.992;2023-04-24T03:21:44;8.80;99.90
14409;DHT22;7289;50.706;4.992;2023-04-24T03:24:13;8.80;99.90
14409;DHT22;7289;50.706;4.992;2023-04-24T03:26:41;8.90;99.90
14409;DHT22;7289;50.706;4.992;2023-04-24T03:29:28;8.80;99.90
14409;DHT22;7289;50.706;4.992;2023-04-24T03:31:58;8.80;99.90
14409;DHT22;7289;50.706;4.992;2023-04-24T03:34:27;8.80;99.90
14409;DHT22;7289;50.706;4.992;2023-04-24T03:36:59;8.80;99.90
14409;DHT22;7289;50.706;4.992;2023-04-24T03:39:28;8.80;99.90
14409;DHT22;7289;50.706;4.992;2023-04-24T03:41:57;8.90;99.90
14409;DHT22;7289;50.706;4.992;2023-04-24T03:44:36;8.90;99.90
14409;DHT22;7289;50.706;4.992;2023-04-24T03:47:04;8.90;99.90
14409;DHT22;7289;50.706;4.992;2023-04-24T03:49:33;8.90;99.90
14409;DHT22;7289;50.706;4.992;2023-04-24T03:52:03;8.90;99.90
14409;DHT22;7289;50.706;4.992;2023-04-24T03:54:31;8.90;99.90
14409;DHT22;7289;50.706;4.992;2023-04-24T03:57:00;8.80;99.90
14409;DHT22;7289;50.706;4.992;2023-04-24T03:59:32;8.80;99.90
14409;DHT22;7289;50.706;4.992;2023-04-24T04:02:09;8.90;99.90
14409;DHT22;7289;50.706;4.992;2023-04-24T04:04:38;8.80;99.90
14409;DHT22;7289;50.706;4.992;2023-04-24T04:07:08;8.80;99.90
14409;DHT22;7289;50.706;4.992;2023-04-24T04:09:38;8.70;99.90
14409;DHT22;7289;50.706;4.992;2023-04-24T04:12:07;8.80;99.90
14409;DHT22;7289;50.706;4.992;2023-04-24T04:14:37;8.80;99.90
14409;DHT22;7289;50.706;4.992;2023-04-24T04:17:05;8.70;99.90
14409;DHT22;7289;50.706;4.992;2023-04-24T04:19:34;8.70;99.90
14409;DHT22;7289;50.706;4.992;2023-04-24T04:22:03;8.60;99.90
14409;DHT22;7289;50.706;4.992;2023-04-24T04:24:42;8.70;99.90
14409;DHT22;7289;50.706;4.992;2023-04-24T04:27:11;8.60;99.90
14409;DHT22;7289;50.706;4.992;2023-04-24T04:29:49;8.70;99.90
14409;DHT22;7289;50.706;4.992;2023-04-24T04:32:19;8.70;99.90
14409;DHT22;7289;50.706;4.992;2023-04-24T04:34:49;8.70;99.90
14409;DHT22;7289;50.706;4.992;2023-04-24T04:37:22;8.70;99.90
14409;DHT22;7289;50.706;4.992;2023-04-24T04:40:06;8.70;99.90
14409;DHT22;7289;50.706;4.992;2023-04-24T04:42:47;8.60;99.90
14409;DHT22;7289;50.706;4.992;2023-04-24T04:45:16;8.70;99.90
14409;DHT22;7289;50.706;4.992;2023-04-24T04:48:05;8.70;99.90
14409;DHT22;7289;50.706;4.992;2023-04-24T04:50:36;8.80;99.90
14409;DHT22;7289;50.706;4.992;2023-04-24T04:53:07;8.80;99.90
14409;DHT22;7289;50.706;4.992;2023-04-24T04:55:39;8.80;99.90
14409;DHT22;7289;50.706;4.992;2023-04-24T04:58:10;8.80;99.90
14409;DHT22;7289;50.706;4.992;2023-04-24T05:00:39;8.80;99.90
14409;DHT22;7289;50.706;4.992;2023-04-24T05:03:28;8.90;99.90
14409;DHT22;7289;50.706;4.992;2023-04-24T05:06:02;8.90;99.90
14409;DHT22;7289;50.706;4.992;2023-04-24T05:08:34;8.90;99.90
14409;DHT22;7289;50.706;4.992;2023-04-24T05:11:06;8.90;99.90
14409;DHT22;7289;50.706;4.992;2023-04-24T05:13:34;8.90;99.90
14409;DHT22;7289;50.706;4.992;2023-04-24T05:16:21;9.00;99.90
14409;DHT22;7289;50.706;4.992;2023-04-24T05:18:52;9.00;99.90
14409;DHT22;7289;50.706;4.992;2023-04-24T05:21:27;9.00;99.90
14409;DHT22;7289;50.706;4.992;2023-04-24T05:23:56;9.10;99.90
14409;DHT22;7289;50.706;4.992;2023-04-24T05:26:49;9.10;99.90
14409;DHT22;7289;50.706;4.992;2023-04-24T05:29:22;9.10;99.90
14409;DHT22;7289;50.706;4.992;2023-04-24T05:31:53;9.10;99.90
14409;DHT22;7289;50.706;4.992;2023-04-24T05:34:23;9.20;99.90
14409;DHT22;7289;50.706;4.992;2023-04-24T05:36:55;9.20;99.90
14409;DHT22;7289;50.706;4.992;2023-04-24T05:39:23;9.20;99.90
14409;DHT22;7289;50.706;4.992;2023-04-24T05:41:55;9.20;99.90
14409;DHT22;7289;50.706;4.992;2023-04-24T05:44:25;9.10;99.90
14409;DHT22;7289;50.706;4.992;2023-04-24T05:46:53;9.10;99.90
14409;DHT22;7289;50.706;4.992;2023-04-24T05:49:23;9.00;99.90
14409;DHT22;7289;50.706;4.992;2023-04-24T05:51:52;9.10;99.90
14409;DHT22;7289;50.706;4.992;2023-04-24T05:54:21;8.90;99.90
14409;DHT22;7289;50.706;4.992;2023-04-24T05:56:50;8.80;99.90
14409;DHT22;7289;50.706;4.992;2023-04-24T05:59:30;8.80;99.90
14409;DHT22;7289;50.706;4.992;2023-04-24T06:01:59;8.80;99.90
14409;DHT22;7289;50.706;4.992;2023-04-24T06:04:28;8.80;99.90
14409;DHT22;7289;50.706;4.992;2023-04-24T06:06:58;8.80;99.90
14409;DHT22;7289;50.706;4.992;2023-04-24T06:09:27;8.80;99.90
14409;DHT22;7289;50.706;4.992;2023-04-24T06:11:56;8.80;99.90
14409;DHT22;7289;50.706;4.992;2023-04-24T06:14:34;8.80;99.90
14409;DHT22;7289;50.706;4.992;2023-04-24T06:17:15;8.80;99.90
14409;DHT22;7289;50.706;4.992;2023-04-24T06:19:45;8.80;99.90
14409;DHT22;7289;50.706;4.992;2023-04-24T06:22:16;8.70;99.90
14409;DHT22;7289;50.706;4.992;2023-04-24T06:24:48;8.70;99.90
14409;DHT22;7289;50.706;4.992;2023-04-24T06:27:17;8.70;99.90
14409;DHT22;7289;50.706;4.992;2023-04-24T06:29:47;8.70;99.90
14409;DHT22;7289;50.706;4.992;2023-04-24T06:32:22;8.70;99.90
14409;DHT22;7289;50.706;4.992;2023-04-24T06:34:51;8.80;99.90
14409;DHT22;7289;50.706;4.992;2023-04-24T06:37:20;8.80;99.90
14409;DHT22;7289;50.706;4.992;2023-04-24T06:39:49;8.80;99.90
14409;DHT22;7289;50.706;4.992;2023-04-24T06:42:17;8.70;99.90
14409;DHT22;7289;50.706;4.992;2023-04-24T06:44:51;8.80;99.90
14409;DHT22;7289;50.706;4.992;2023-04-24T06:47:22;8.80;99.90
14409;DHT22;7289;50.706;4.992;2023-04-24T06:49:50;8.80;99.90
14409;DHT22;7289;50.706;4.992;2023-04-24T06:52:19;8.90;99.90
14409;DHT22;7289;50.706;4.992;2023-04-24T06:54:49;9.00;99.90
14409;DHT22;7289;50.706;4.992;2023-04-24T06:57:17;8.90;99.90
14409;DHT22;7289;50.706;4.992;2023-04-24T06:59:47;8.80;99.90
14409;DHT22;7289;50.706;4.992;2023-04-24T07:02:16;8.80;99.90
14409;DHT22;7289;50.706;4.992;2023-04-24T07:04:45;8.90;99.90
14409;DHT22;7289;50.706;4.992;2023-04-24T07:07:14;8.90;99.90
14409;DHT22;7289;50.706;4.992;2023-04-24T07:09:43;9.00;99.90
14409;DHT22;7289;50.706;4.992;2023-04-24T07:12:13;9.10;99.90
14409;DHT22;7289;50.706;4.992;2023-04-24T07:14:44;9.10;99.90
14409;DHT22;7289;50.706;4.992;2023-04-24T07:17:13;9.10;99.90
14409;DHT22;7289;50.706;4.992;2023-04-24T07:19:43;9.10;99.90
14409;DHT22;7289;50.706;4.992;2023-04-24T07:22:12;9.20;99.90
14409;DHT22;7289;50.706;4.992;2023-04-24T07:24:43;9.10;99.90
14409;DHT22;7289;50.706;4.992;2023-04-24T07:27:12;9.10;99.90
14409;DHT22;7289;50.706;4.992;2023-04-24T07:29:42;9.10;99.90
14409;DHT22;7289;50.706;4.992;2023-04-24T07:32:11;9.20;99.90
14409;DHT22;7289;50.706;4.992;2023-04-24T07:34:40;9.20;99.90
14409;DHT22;7289;50.706;4.992;2023-04-24T07:37:10;9.30;99.90
14409;DHT22;7289;50.706;4.992;2023-04-24T07:39:38;9.40;99.90
14409;DHT22;7289;50.706;4.992;2023-04-24T07:42:07;9.60;99.90
14409;DHT22;7289;50.706;4.992;2023-04-24T07:44:35;9.80;99.90
14409;DHT22;7289;50.706;4.992;2023-04-24T07:47:04;10.10;99.90
14409;DHT22;7289;50.706;4.992;2023-04-24T07:49:32;10.20;99.90
14409;DHT22;7289;50.706;4.992;2023-04-24T07:52:01;10.20;99.90
14409;DHT22;7289;50.706;4.992;2023-04-24T07:54:31;10.20;99.90
14409;DHT22;7289;50.706;4.992;2023-04-24T07:57:00;10.20;99.90
14409;DHT22;7289;50.706;4.992;2023-04-24T07:59:28;10.10;99.90
14409;DHT22;7289;50.706;4.992;2023-04-24T08:01:58;10.00;99.90
14409;DHT22;7289;50.706;4.992;2023-04-24T08:04:28;9.90;99.90
14409;DHT22;7289;50.706;4.992;2023-04-24T08:06:57;9.90;99.90
14409;DHT22;7289;50.706;4.992;2023-04-24T08:09:25;10.10;99.90
14409;DHT22;7289;50.706;4.992;2023-04-24T08:11:55;10.20;99.90
14409;DHT22;7289;50.706;4.992;2023-04-24T08:14:24;10.30;99.90
14409;DHT22;7289;50.706;4.992;2023-04-24T08:16:54;10.30;99.90
14409;DHT22;7289;50.706;4.992;2023-04-24T08:19:23;10.50;99.90
14409;DHT22;7289;50.706;4.992;2023-04-24T08:21:52;10.80;99.90
14409;DHT22;7289;50.706;4.992;2023-04-24T08:24:22;10.90;99.90
14409;DHT22;7289;50.706;4.992;2023-04-24T08:26:50;11.10;99.90
14409;DHT22;7289;50.706;4.992;2023-04-24T08:29:22;11.10;99.90
14409;DHT22;7289;50.706;4.992;2023-04-24T08:31:50;11.30;99.90
14409;DHT22;7289;50.706;4.992;2023-04-24T08:34:21;11.50;99.90
14409;DHT22;7289;50.706;4.992;2023-04-24T08:36:50;11.50;99.90
14409;DHT22;7289;50.706;4.992;2023-04-24T08:39:18;11.60;99.90
14409;DHT22;7289;50.706;4.992;2023-04-24T08:41:48;11.40;99.90
14409;DHT22;7289;50.706;4.992;2023-04-24T08:44:17;11.20;99.90
14409;DHT22;7289;50.706;4.992;2023-04-24T08:46:49;11.00;99.90
14409;DHT22;7289;50.706;4.992;2023-04-24T08:49:19;10.90;99.90
14409;DHT22;7289;50.706;4.992;2023-04-24T08:51:48;11.10;99.90
14409;DHT22;7289;50.706;4.992;2023-04-24T08:54:17;11.20;99.90
14409;DHT22;7289;50.706;4.992;2023-04-24T08:56:47;11.30;99.90
14409;DHT22;7289;50.706;4.992;2023-04-24T08:59:16;11.70;99.90
14409;DHT22;7289;50.706;4.992;2023-04-24T09:01:45;11.90;99.90
14409;DHT22;7289;50.706;4.992;2023-04-24T09:04:17;12.00;99.90
14409;DHT22;7289;50.706;4.992;2023-04-24T09:06:49;12.20;99.90
14409;DHT22;7289;50.706;4.992;2023-04-24T09:09:17;12.10;99.90
14409;DHT22;7289;50.706;4.992;2023-04-24T09:11:46;12.20;99.90
14409;DHT22;7289;50.706;4.992;2023-04-24T09:14:15;12.10;99.90
14409;DHT22;7289;50.706;4.992;2023-04-24T09:16:45;12.20;99.90
14409;DHT22;7289;50.706;4.992;2023-04-24T09:19:14;12.30;99.90
14409;DHT22;7289;50.706;4.992;2023-04-24T09:21:46;12.60;99.90
14409;DHT22;7289;50.706;4.992;2023-04-24T09:24:16;12.70;99.90
14409;DHT22;7289;50.706;4.992;2023-04-24T09:26:45;12.90;99.90
14409;DHT22;7289;50.706;4.992;2023-04-24T09:29:17;13.30;99.90
14409;DHT22;7289;50.706;4.992;2023-04-24T09:31:46;13.70;99.90
14409;DHT22;7289;50.706;4.992;2023-04-24T09:34:18;13.40;99.90
14409;DHT22;7289;50.706;4.992;2023-04-24T09:36:50;13.50;99.90
14409;DHT22;7289;50.706;4.992;2023-04-24T09:39:19;13.50;99.90
14409;DHT22;7289;50.706;4.992;2023-04-24T09:41:49;13.60;99.90
14409;DHT22;7289;50.706;4.992;2023-04-24T09:44:19;13.70;99.90
14409;DHT22;7289;50.706;4.992;2023-04-24T09:46:50;13.60;99.90
14409;DHT22;7289;50.706;4.992;2023-04-24T09:49:23;13.90;99.90
14409;DHT22;7289;50.706;4.992;2023-04-24T09:52:02;14.20;99.90
14409;DHT22;7289;50.706;4.992;2023-04-24T09:54:31;14.20;99.90
14409;DHT22;7289;50.706;4.992;2023-04-24T09:57:00;14.40;99.90
14409;DHT22;7289;50.706;4.992;2023-04-24T09:59:29;14.60;99.90
14409;DHT22;7289;50.706;4.992;2023-04-24T10:01:59;14.70;99.90
14409;DHT22;7289;50.706;4.992;2023-04-24T10:04:28;14.40;98.40
14409;DHT22;7289;50.706;4.992;2023-04-24T10:06:58;14.40;99.00
14409;DHT22;7289;50.706;4.992;2023-04-24T10:09:28;14.30;99.10
14409;DHT22;7289;50.706;4.992;2023-04-24T10:11:56;14.10;99.10
14409;DHT22;7289;50.706;4.992;2023-04-24T10:14:25;14.00;97.70
14409;DHT22;7289;50.706;4.992;2023-04-24T10:16:54;14.00;98.80
14409;DHT22;7289;50.706;4.992;2023-04-24T10:19:25;14.00;99.40
14409;DHT22;7289;50.706;4.992;2023-04-24T10:21:54;13.70;99.50
14409;DHT22;7289;50.706;4.992;2023-04-24T10:24:25;13.40;99.90
14409;DHT22;7289;50.706;4.992;2023-04-24T10:26:54;13.10;99.90
14409;DHT22;7289;50.706;4.992;2023-04-24T10:29:24;13.00;99.90
14409;DHT22;7289;50.706;4.992;2023-04-24T10:31:53;13.30;99.90
14409;DHT22;7289;50.706;4.992;2023-04-24T10:34:22;13.70;99.90
14409;DHT22;7289;50.706;4.992;2023-04-24T10:36:53;14.00;99.50
14409;DHT22;7289;50.706;4.992;2023-04-24T10:39:25;13.90;98.90
14409;DHT22;7289;50.706;4.992;2023-04-24T10:41:55;13.80;99.00
14409;DHT22;7289;50.706;4.992;2023-04-24T10:44:25;13.50;99.00
14409;DHT22;7289;50.706;4.992;2023-04-24T10:46:55;13.30;99.80
14409;DHT22;7289;50.706;4.992;2023-04-24T10:49:32;13.40;99.60
14409;DHT22;7289;50.706;4.992;2023-04-24T10:52:02;13.90;99.60
14409;DHT22;7289;50.706;4.992;2023-04-24T10:54:40;13.90;98.40
14409;DHT22;7289;50.706;4.992;2023-04-24T10:57:27;14.00;98.40
14409;DHT22;7289;50.706;4.992;2023-04-24T11:00:13;14.20;98.30
14409;DHT22;7289;50.706;4.992;2023-04-24T11:02:42;14.50;97.50
14409;DHT22;7289;50.706;4.992;2023-04-24T11:05:17;14.60;97.30
14409;DHT22;7289;50.706;4.992;2023-04-24T11:08:09;14.80;97.20
14409;DHT22;7289;50.706;4.992;2023-04-24T11:10:40;15.10;96.20
14409;DHT22;7289;50.706;4.992;2023-04-24T11:13:15;14.90;96.10
14409;DHT22;7289;50.706;4.992;2023-04-24T11:15:44;14.80;96.20
14409;DHT22;7289;50.706;4.992;2023-04-24T11:18:14;14.90;96.30
14409;DHT22;7289;50.706;4.992;2023-04-24T11:20:43;15.00;95.70
14409;DHT22;7289;50.706;4.992;2023-04-24T11:23:12;15.00;95.90
14409;DHT22;7289;50.706;4.992;2023-04-24T11:25:42;15.10;96.30
14409;DHT22;7289;50.706;4.992;2023-04-24T11:28:15;14.90;95.40
14409;DHT22;7289;50.706;4.992;2023-04-24T11:30:44;15.00;94.80
14409;DHT22;7289;50.706;4.992;2023-04-24T11:33:19;14.80;96.60
14409;DHT22;7289;50.706;4.992;2023-04-24T11:35:48;14.70;96.70
14409;DHT22;7289;50.706;4.992;2023-04-24T11:38:19;14.60;95.90
14409;DHT22;7289;50.706;4.992;2023-04-24T11:40:53;14.40;96.50
14409;DHT22;7289;50.706;4.992;2023-04-24T11:43:23;14.30;96.40
14409;DHT22;7289;50.706;4.992;2023-04-24T11:45:51;14.20;96.90
14409;DHT22;7289;50.706;4.992;2023-04-24T11:48:21;14.40;97.10
14409;DHT22;7289;50.706;4.992;2023-04-24T11:50:50;14.30;96.00
14409;DHT22;7289;50.706;4.992;2023-04-24T11:53:19;13.80;96.60
14409;DHT22;7289;50.706;4.992;2023-04-24T11:55:48;13.70;97.50
14409;DHT22;7289;50.706;4.992;2023-04-24T11:58:20;14.10;97.40
14409;DHT22;7289;50.706;4.992;2023-04-24T12:00:56;14.20;97.70
14409;DHT22;7289;50.706;4.992;2023-04-24T12:03:25;14.50;97.00
14409;DHT22;7289;50.706;4.992;2023-04-24T12:06:04;14.70;97.00
14409;DHT22;7289;50.706;4.992;2023-04-24T12:08:35;15.00;96.10
14409;DHT22;7289;50.706;4.992;2023-04-24T12:11:06;14.80;96.00
14409;DHT22;7289;50.706;4.992;2023-04-24T12:13:36;14.70;95.90
14409;DHT22;7289;50.706;4.992;2023-04-24T12:16:05;14.80;97.00
14409;DHT22;7289;50.706;4.992;2023-04-24T12:18:33;14.70;96.50
14409;DHT22;7289;50.706;4.992;2023-04-24T12:21:18;14.80;96.20
14409;DHT22;7289;50.706;4.992;2023-04-24T12:23:49;14.70;95.70
14409;DHT22;7289;50.706;4.992;2023-04-24T12:26:18;14.70;96.60
14409;DHT22;7289;50.706;4.992;2023-04-24T12:28:49;14.80;96.60
14409;DHT22;7289;50.706;4.992;2023-04-24T12:31:17;14.90;96.40
14409;DHT22;7289;50.706;4.992;2023-04-24T12:33:48;15.00;96.40
14409;DHT22;7289;50.706;4.992;2023-04-24T12:36:17;15.00;96.30
14409;DHT22;7289;50.706;4.992;2023-04-24T12:38:45;14.80;96.00
14409;DHT22;7289;50.706;4.992;2023-04-24T12:41:14;14.70;96.00
14409;DHT22;7289;50.706;4.992;2023-04-24T12:44:02;14.90;98.30
14409;DHT22;7289;50.706;4.992;2023-04-24T12:46:30;15.30;96.00
14409;DHT22;7289;50.706;4.992;2023-04-24T12:48:58;15.60;96.60
14409;DHT22;7289;50.706;4.992;2023-04-24T12:51:27;15.50;95.00
14409;DHT22;7289;50.706;4.992;2023-04-24T12:53:55;15.50;95.60
14409;DHT22;7289;50.706;4.992;2023-04-24T12:56:27;15.70;96.10
14409;DHT22;7289;50.706;4.992;2023-04-24T12:59:07;15.70;94.60
14409;DHT22;7289;50.706;4.992;2023-04-24T13:01:39;15.80;94.50
14409;DHT22;7289;50.706;4.992;2023-04-24T13:04:11;15.70;94.80
14409;DHT22;7289;50.706;4.992;2023-04-24T13:06:39;15.90;95.80
14409;DHT22;7289;50.706;4.992;2023-04-24T13:09:08;16.20;95.00
14409;DHT22;7289;50.706;4.992;2023-04-24T13:11:36;16.20;93.70
14409;DHT22;7289;50.706;4.992;2023-04-24T13:14:06;15.90;94.40
14409;DHT22;7289;50.706;4.992;2023-04-24T13:16:34;15.40;93.20
14409;DHT22;7289;50.706;4.992;2023-04-24T13:19:03;15.00;93.10
14409;DHT22;7289;50.706;4.992;2023-04-24T13:21:32;15.00;95.20
14409;DHT22;7289;50.706;4.992;2023-04-24T13:24:00;14.90;94.20
14409;DHT22;7289;50.706;4.992;2023-04-24T13:26:30;14.90;94.80
14409;DHT22;7289;50.706;4.992;2023-04-24T13:28:59;15.00;93.80
14409;DHT22;7289;50.706;4.992;2023-04-24T13:31:29;14.90;93.90
14409;DHT22;7289;50.706;4.992;2023-04-24T13:33:57;14.90;93.60
14409;DHT22;7289;50.706;4.992;2023-04-24T13:36:26;14.80;94.00
14409;DHT22;7289;50.706;4.992;2023-04-24T13:38:54;14.60;94.70
14409;DHT22;7289;50.706;4.992;2023-04-24T13:41:23;14.30;95.50
14409;DHT22;7289;50.706;4.992;2023-04-24T13:43:52;14.30;94.80
14409;DHT22;7289;50.706;4.992;2023-04-24T13:46:20;14.30;94.70
14409;DHT22;7289;50.706;4.992;2023-04-24T13:48:50;14.30;94.90
14409;DHT22;7289;50.706;4.992;2023-04-24T13:51:18;14.00;94.20
14409;DHT22;7289;50.706;4.992;2023-04-24T13:53:47;13.80;94.70
14409;DHT22;7289;50.706;4.992;2023-04-24T13:56:15;13.90;95.30
14409;DHT22;7289;50.706;4.992;2023-04-24T13:58:44;13.90;95.30
14409;DHT22;7289;50.706;4.992;2023-04-24T14:01:12;13.70;95.30
14409;DHT22;7289;50.706;4.992;2023-04-24T14:03:42;13.80;96.20
14409;DHT22;7289;50.706;4.992;2023-04-24T14:06:12;13.80;95.80
14409;DHT22;7289;50.706;4.992;2023-04-24T14:08:41;13.90;95.70
14409;DHT22;7289;50.706;4.992;2023-04-24T14:11:09;14.00;96.50
14409;DHT22;7289;50.706;4.992;2023-04-24T14:13:38;14.10;96.30
14409;DHT22;7289;50.706;4.992;2023-04-24T14:16:07;14.10;95.00
14409;DHT22;7289;50.706;4.992;2023-04-24T14:18:35;14.30;95.80
14409;DHT22;7289;50.706;4.992;2023-04-24T14:21:04;14.40;94.40
14409;DHT22;7289;50.706;4.992;2023-04-24T14:23:34;14.40;94.80
14409;DHT22;7289;50.706;4.992;2023-04-24T14:26:02;14.40;95.10
14409;DHT22;7289;50.706;4.992;2023-04-24T14:28:31;14.00;95.50
14409;DHT22;7289;50.706;4.992;2023-04-24T14:30:59;13.90;95.70
14409;DHT22;7289;50.706;4.992;2023-04-24T14:33:28;13.90;95.80
14409;DHT22;7289;50.706;4.992;2023-04-24T14:35:56;14.00;95.80
14409;DHT22;7289;50.706;4.992;2023-04-24T14:38:25;13.90;96.10
14409;DHT22;7289;50.706;4.992;2023-04-24T14:40:55;14.00;96.00
14409;DHT22;7289;50.706;4.992;2023-04-24T14:43:26;14.10;96.00
14409;DHT22;7289;50.706;4.992;2023-04-24T14:45:54;14.00;96.50
14409;DHT22;7289;50.706;4.992;2023-04-24T14:48:23;14.10;96.80
14409;DHT22;7289;50.706;4.992;2023-04-24T14:50:51;14.30;97.30
14409;DHT22;7289;50.706;4.992;2023-04-24T14:53:20;14.20;96.50
14409;DHT22;7289;50.706;4.992;2023-04-24T14:55:48;14.10;96.70
14409;DHT22;7289;50.706;4.992;2023-04-24T14:58:18;14.10;96.90
14409;DHT22;7289;50.706;4.992;2023-04-24T15:00:46;13.90;96.70
14409;DHT22;7289;50.706;4.992;2023-04-24T15:03:17;13.90;97.50
14409;DHT22;7289;50.706;4.992;2023-04-24T15:05:47;13.80;98.80
14409;DHT22;7289;50.706;4.992;2023-04-24T15:08:16;13.70;99.70
14409;DHT22;7289;50.706;4.992;2023-04-24T15:10:44;13.70;99.90
14409;DHT22;7289;50.706;4.992;2023-04-24T15:13:13;13.60;99.90
14409;DHT22;7289;50.706;4.992;2023-04-24T15:15:43;13.50;99.90
14409;DHT22;7289;50.706;4.992;2023-04-24T15:18:11;13.40;99.90
14409;DHT22;7289;50.706;4.992;2023-04-24T15:20:40;13.30;99.90
14409;DHT22;7289;50.706;4.992;2023-04-24T15:23:09;13.20;99.90
14409;DHT22;7289;50.706;4.992;2023-04-24T15:25:38;13.10;99.90
14409;DHT22;7289;50.706;4.992;2023-04-24T15:28:06;13.20;99.90
14409;DHT22;7289;50.706;4.992;2023-04-24T15:30:35;13.20;99.90
14409;DHT22;7289;50.706;4.992;2023-04-24T15:33:05;13.30;99.90
14409;DHT22;7289;50.706;4.992;2023-04-24T15:35:33;13.40;99.90
14409;DHT22;7289;50.706;4.992;2023-04-24T15:38:02;13.50;99.90
14409;DHT22;7289;50.706;4.992;2023-04-24T15:40:31;13.80;99.90
14409;DHT22;7289;50.706;4.992;2023-04-24T15:42:59;14.10;99.70
14409;DHT22;7289;50.706;4.992;2023-04-24T15:45:28;14.40;99.20
14409;DHT22;7289;50.706;4.992;2023-04-24T15:47:57;14.70;98.70
14409;DHT22;7289;50.706;4.992;2023-04-24T15:50:27;14.60;98.80
14409;DHT22;7289;50.706;4.992;2023-04-24T15:52:55;14.70;99.20
14409;DHT22;7289;50.706;4.992;2023-04-24T15:55:24;14.70;99.20
14409;DHT22;7289;50.706;4.992;2023-04-24T15:57:52;14.70;99.30
14409;DHT22;7289;50.706;4.992;2023-04-24T16:00:20;14.60;99.10
14409;DHT22;7289;50.706;4.992;2023-04-24T16:02:49;14.60;99.20
14409;DHT22;7289;50.706;4.992;2023-04-24T16:05:17;14.50;99.00
14409;DHT22;7289;50.706;4.992;2023-04-24T16:07:50;14.30;99.30
14409;DHT22;7289;50.706;4.992;2023-04-24T16:10:18;14.30;99.40